sensor_id;sensor_type;location;lat;lon;timestamp;pressure;altitude;pressure_sealevel;temperature;humidity
37064;BME280;23211;53.912;9.138;2022-11-20T00:00:39;101256.66;;;8.01;57.16
37064;BME280;23211;53.912;9.138;2022-11-20T00:03:25;101257.69;;;8.00;56.88
37064;BME280;23211;53.912;9.138;2022-11-20T00:06:13;101254.81;;;8.02;57.05
37064;BME280;23211;53.912;9.138;2022-11-20T00:09:00;101253.53;;;8.04;56.90
37064;BME280;23211;53.912;9.138;2022-11-20T00:11:47;101256.00;;;8.06;56.69
37064;BME280;23211;53.912;9.138;2022-11-20T00:14:32;101256.34;;;8.09;56.60
37064;BME280;23211;53.912;9.138;2022-11-20T00:17:18;101256.72;;;8.13;56.56
37064;BME280;23211;53.912;9.138;2022-11-20T00:20:05;101260.78;;;8.16;56.76
37064;BME280;23211;53.912;9.138;2022-11-20T00:22:51;101261.38;;;8.18;56.46
37064;BME280;23211;53.912;9.138;2022-11-20T00:25:37;101243.53;;;8.18;56.26
37064;BME280;23211;53.912;9.138;2022-11-20T00:28:22;101251.53;;;8.18;56.16
37064;BME280;23211;53.912;9.138;2022-11-20T00:31:11;101247.00;;;8.19;56.55
37064;BME280;23211;53.912;9.138;2022-11-20T00:33:57;101244.34;;;8.19;56.53
37064;BME280;23211;53.912;9.138;2022-11-20T00:36:43;101244.56;;;8.17;56.66
37064;BME280;23211;53.912;9.138;2022-11-20T00:39:29;101246.63;;;8.15;56.47
37064;BME280;23211;53.912;9.138;2022-11-20T00:42:14;101240.72;;;8.13;56.60
37064;BME280;23211;53.912;9.138;2022-11-20T00:45:00;101247.69;;;8.14;56.60
37064;BME280;23211;53.912;9.138;2022-11-20T00:47:46;101239.91;;;8.13;56.67
37064;BME280;23211;53.912;9.138;2022-11-20T00:50:32;101238.84;;;8.14;56.38
37064;BME280;23211;53.912;9.138;2022-11-20T00:53:17;101239.91;;;8.13;56.38
37064;BME280;23211;53.912;9.138;2022-11-20T00:56:09;101245.22;;;8.13;56.50
37064;BME280;23211;53.912;9.138;2022-11-20T00:58:55;101236.19;;;8.14;56.34
37064;BME280;23211;53.912;9.138;2022-11-20T01:01:41;101229.81;;;8.15;56.48
37064;BME280;23211;53.912;9.138;2022-11-20T01:04:27;101229.00;;;8.14;56.14
37064;BME280;23211;53.912;9.138;2022-11-20T01:07:12;101218.31;;;8.14;56.25
37064;BME280;23211;53.912;9.138;2022-11-20T01:09:58;101222.84;;;8.14;56.25
37064;BME280;23211;53.912;9.138;2022-11-20T01:12:44;101222.84;;;8.14;56.53
37064;BME280;23211;53.912;9.138;2022-11-20T01:15:50;101228.19;;;8.14;56.26
37064;BME280;23211;53.912;9.138;2022-11-20T01:18:38;101220.19;;;8.14;56.22
37064;BME280;23211;53.912;9.138;2022-11-20T01:21:28;101220.75;;;8.16;56.06
37064;BME280;23211;53.912;9.138;2022-11-20T01:24:15;101215.44;;;8.16;56.30
37064;BME280;23211;53.912;9.138;2022-11-20T01:27:01;101216.25;;;8.16;56.12
37064;BME280;23211;53.912;9.138;2022-11-20T01:29:47;101216.25;;;8.16;55.90
37064;BME280;23211;53.912;9.138;2022-11-20T01:32:33;101214.38;;;8.17;56.21
37064;BME280;23211;53.912;9.138;2022-11-20T01:35:19;101216.00;;;8.18;56.25
37064;BME280;23211;53.912;9.138;2022-11-20T01:38:05;101216.00;;;8.18;56.29
37064;BME280;23211;53.912;9.138;2022-11-20T01:40:55;101212.75;;;8.16;56.29
37064;BME280;23211;53.912;9.138;2022-11-20T01:43:41;101202.91;;;8.16;56.16
37064;BME280;23211;53.912;9.138;2022-11-20T01:46:27;101203.13;;;8.15;56.70
37064;BME280;23211;53.912;9.138;2022-11-20T01:49:33;101206.00;;;8.13;56.57
37064;BME280;23211;53.912;9.138;2022-11-20T01:52:23;101194.53;;;8.13;56.63
37064;BME280;23211;53.912;9.138;2022-11-20T01:55:17;101197.78;;;8.15;56.37
37064;BME280;23211;53.912;9.138;2022-11-20T01:58:04;101199.19;;;8.17;56.33
37064;BME280;23211;53.912;9.138;2022-11-20T02:00:51;101200.00;;;8.18;56.10
37064;BME280;23211;53.912;9.138;2022-11-20T02:03:37;101197.34;;;8.18;55.90
37064;BME280;23211;53.912;9.138;2022-11-20T02:06:27;101187.91;;;8.15;55.69
37064;BME280;23211;53.912;9.138;2022-11-20T02:09:14;101180.38;;;8.12;55.84
37064;BME280;23211;53.912;9.138;2022-11-20T02:12:00;101185.13;;;8.10;55.79
37064;BME280;23211;53.912;9.138;2022-11-20T02:14:46;101179.19;;;8.08;55.83
37064;BME280;23211;53.912;9.138;2022-11-20T02:17:32;101178.38;;;8.07;55.61
37064;BME280;23211;53.912;9.138;2022-11-20T02:20:18;101171.63;;;8.05;55.96
37064;BME280;23211;53.912;9.138;2022-11-20T02:25:53;101172.31;;;8.00;55.41
37064;BME280;23211;53.912;9.138;2022-11-20T02:28:39;101173.81;;;7.96;55.80
37064;BME280;23211;53.912;9.138;2022-11-20T02:31:26;101169.97;;;7.92;55.59
37064;BME280;23211;53.912;9.138;2022-11-20T02:34:12;101173.31;;;7.88;55.79
37064;BME280;23211;53.912;9.138;2022-11-20T02:36:58;101166.78;;;7.84;55.73
37064;BME280;23211;53.912;9.138;2022-11-20T02:39:46;101161.09;;;7.80;55.90
37064;BME280;23211;53.912;9.138;2022-11-20T02:42:33;101172.44;;;7.75;55.47
37064;BME280;23211;53.912;9.138;2022-11-20T02:45:19;101166.50;;;7.73;55.88
37064;BME280;23211;53.912;9.138;2022-11-20T02:48:05;101159.56;;;7.72;55.80
37064;BME280;23211;53.912;9.138;2022-11-20T02:50:51;101160.59;;;7.71;55.50
37064;BME280;23211;53.912;9.138;2022-11-20T02:53:37;101165.91;;;7.71;55.19
37064;BME280;23211;53.912;9.138;2022-11-20T02:56:23;101153.63;;;7.70;55.07
37064;BME280;23211;53.912;9.138;2022-11-20T02:59:09;101155.69;;;7.68;55.24
37064;BME280;23211;53.912;9.138;2022-11-20T03:01:55;101156.75;;;7.67;55.09
37064;BME280;23211;53.912;9.138;2022-11-20T03:04:41;101148.16;;;7.65;55.02
37064;BME280;23211;53.912;9.138;2022-11-20T03:07:27;101152.66;;;7.65;55.53
37064;BME280;23211;53.912;9.138;2022-11-20T03:10:13;101150.81;;;7.65;55.26
37064;BME280;23211;53.912;9.138;2022-11-20T03:12:59;101151.84;;;7.64;55.09
37064;BME280;23211;53.912;9.138;2022-11-20T03:15:44;101157.63;;;7.61;54.55
37064;BME280;23211;53.912;9.138;2022-11-20T03:18:30;101150.09;;;7.58;55.32
37064;BME280;23211;53.912;9.138;2022-11-20T03:21:16;101149.50;;;7.56;55.10
37064;BME280;23211;53.912;9.138;2022-11-20T03:24:02;101144.59;;;7.53;54.78
37064;BME280;23211;53.912;9.138;2022-11-20T03:26:48;101135.19;;;7.51;54.67
37064;BME280;23211;53.912;9.138;2022-11-20T03:29:37;101133.22;;;7.46;54.47
37064;BME280;23211;53.912;9.138;2022-11-20T03:32:23;101135.28;;;7.44;54.51
37064;BME280;23211;53.912;9.138;2022-11-20T03:35:09;101133.66;;;7.43;54.70
37064;BME280;23211;53.912;9.138;2022-11-20T03:37:55;101128.78;;;7.40;54.14
37064;BME280;23211;53.912;9.138;2022-11-20T03:40:41;101122.63;;;7.39;54.22
37064;BME280;23211;53.912;9.138;2022-11-20T03:43:26;101113.22;;;7.37;54.74
37064;BME280;23211;53.912;9.138;2022-11-20T03:46:12;101130.84;;;7.38;55.03
37064;BME280;23211;53.912;9.138;2022-11-20T03:48:58;101119.59;;;7.36;55.21
37064;BME280;23211;53.912;9.138;2022-11-20T03:51:44;101127.22;;;7.32;54.87
37064;BME280;23211;53.912;9.138;2022-11-20T03:54:30;101123.97;;;7.30;55.28
37064;BME280;23211;53.912;9.138;2022-11-20T03:57:16;101131.38;;;7.28;55.64
37064;BME280;23211;53.912;9.138;2022-11-20T04:00:03;101124.63;;;7.26;55.10
37064;BME280;23211;53.912;9.138;2022-11-20T04:02:50;101123.22;;;7.23;54.93
37064;BME280;23211;53.912;9.138;2022-11-20T04:05:35;101126.91;;;7.22;55.16
37064;BME280;23211;53.912;9.138;2022-11-20T04:08:21;101129.59;;;7.22;55.33
37064;BME280;23211;53.912;9.138;2022-11-20T04:11:14;101120.19;;;7.20;55.70
37064;BME280;23211;53.912;9.138;2022-11-20T04:14:02;101121.81;;;7.21;55.79
37064;BME280;23211;53.912;9.138;2022-11-20T04:16:49;101113.81;;;7.21;55.76
37064;BME280;23211;53.912;9.138;2022-11-20T04:19:35;101116.25;;;7.22;55.87
37064;BME280;23211;53.912;9.138;2022-11-20T04:22:21;101117.06;;;7.23;55.78
37064;BME280;23211;53.912;9.138;2022-11-20T04:25:07;101105.38;;;7.24;55.99
37064;BME280;23211;53.912;9.138;2022-11-20T04:27:53;101100.06;;;7.24;55.39
37064;BME280;23211;53.912;9.138;2022-11-20T04:30:39;101105.16;;;7.25;55.26
37064;BME280;23211;53.912;9.138;2022-11-20T04:33:25;101109.44;;;7.26;55.77
37064;BME280;23211;53.912;9.138;2022-11-20T04:36:13;101097.75;;;7.27;55.55
37064;BME280;23211;53.912;9.138;2022-11-20T04:39:01;101098.34;;;7.29;55.73
37064;BME280;23211;53.912;9.138;2022-11-20T04:41:48;101099.16;;;7.30;55.29
37064;BME280;23211;53.912;9.138;2022-11-20T04:44:54;101102.88;;;7.29;56.05
37064;BME280;23211;53.912;9.138;2022-11-20T04:47:40;101096.50;;;7.30;55.87
37064;BME280;23211;53.912;9.138;2022-11-20T04:50:26;101097.53;;;7.29;55.85
37064;BME280;23211;53.912;9.138;2022-11-20T04:53:12;101097.53;;;7.29;56.32
37064;BME280;23211;53.912;9.138;2022-11-20T04:56:09;101096.94;;;7.27;55.79
37064;BME280;23211;53.912;9.138;2022-11-20T04:58:55;101098.34;;;7.29;56.55
37064;BME280;23211;53.912;9.138;2022-11-20T05:01:41;101092.78;;;7.31;56.08
37064;BME280;23211;53.912;9.138;2022-11-20T05:04:27;101097.91;;;7.32;55.94
37064;BME280;23211;53.912;9.138;2022-11-20T05:07:13;101097.91;;;7.32;56.51
37064;BME280;23211;53.912;9.138;2022-11-20T05:09:58;101090.50;;;7.34;56.40
37064;BME280;23211;53.912;9.138;2022-11-20T05:12:44;101088.66;;;7.35;56.21
37064;BME280;23211;53.912;9.138;2022-11-20T05:15:30;101082.88;;;7.38;55.90
37064;BME280;23211;53.912;9.138;2022-11-20T05:18:16;101080.78;;;7.40;56.45
37064;BME280;23211;53.912;9.138;2022-11-20T05:21:01;101089.38;;;7.42;56.60
37064;BME280;23211;53.912;9.138;2022-11-20T05:23:48;101084.63;;;7.44;56.42
37064;BME280;23211;53.912;9.138;2022-11-20T05:26:34;101084.41;;;7.46;56.23
37064;BME280;23211;53.912;9.138;2022-11-20T05:29:19;101086.03;;;7.47;56.60
37064;BME280;23211;53.912;9.138;2022-11-20T05:32:05;101087.66;;;7.48;56.58
37064;BME280;23211;53.912;9.138;2022-11-20T05:34:54;101075.97;;;7.49;56.35
37064;BME280;23211;53.912;9.138;2022-11-20T05:37:40;101078.41;;;7.50;56.43
37064;BME280;23211;53.912;9.138;2022-11-20T05:40:26;101080.03;;;7.51;56.54
37064;BME280;23211;53.912;9.138;2022-11-20T05:43:11;101071.59;;;7.54;56.88
37064;BME280;23211;53.912;9.138;2022-11-20T05:45:57;101071.72;;;7.59;56.83
37064;BME280;23211;53.912;9.138;2022-11-20T05:48:44;101067.78;;;7.62;56.34
37064;BME280;23211;53.912;9.138;2022-11-20T05:51:30;101064.31;;;7.61;56.38
37064;BME280;23211;53.912;9.138;2022-11-20T05:54:16;101065.94;;;7.62;56.15
37064;BME280;23211;53.912;9.138;2022-11-20T05:57:02;101054.81;;;7.65;56.21
37064;BME280;23211;53.912;9.138;2022-11-20T05:59:47;101047.41;;;7.67;56.43
37064;BME280;23211;53.912;9.138;2022-11-20T06:02:35;101039.41;;;7.67;56.49
37064;BME280;23211;53.912;9.138;2022-11-20T06:05:21;101041.50;;;7.65;56.18
37064;BME280;23211;53.912;9.138;2022-11-20T06:08:07;101044.16;;;7.65;55.89
37064;BME280;23211;53.912;9.138;2022-11-20T06:10:53;101035.56;;;7.63;56.20
37064;BME280;23211;53.912;9.138;2022-11-20T06:13:39;101040.09;;;7.63;56.54
37064;BME280;23211;53.912;9.138;2022-11-20T06:16:25;101042.97;;;7.61;56.17
37064;BME280;23211;53.912;9.138;2022-11-20T06:19:11;101034.16;;;7.61;56.13
37064;BME280;23211;53.912;9.138;2022-11-20T06:21:57;101034.97;;;7.61;56.37
37064;BME280;23211;53.912;9.138;2022-11-20T06:24:43;101021.88;;;7.60;56.26
37064;BME280;23211;53.912;9.138;2022-11-20T06:27:29;101039.13;;;7.57;56.29
37064;BME280;23211;53.912;9.138;2022-11-20T06:30:15;101066.25;;;7.54;56.03
37064;BME280;23211;53.912;9.138;2022-11-20T06:33:01;101066.56;;;7.46;56.20
37064;BME280;23211;53.912;9.138;2022-11-20T06:35:47;101066.88;;;7.38;56.26
37064;BME280;23211;53.912;9.138;2022-11-20T06:38:33;101055.25;;;7.32;56.34
37064;BME280;23211;53.912;9.138;2022-11-20T06:41:21;101065.69;;;7.34;56.72
37064;BME280;23211;53.912;9.138;2022-11-20T06:44:07;101072.06;;;7.33;57.30
37064;BME280;23211;53.912;9.138;2022-11-20T06:46:52;101072.28;;;7.31;57.04
37064;BME280;23211;53.912;9.138;2022-11-20T06:49:38;101065.69;;;7.34;57.37
37064;BME280;23211;53.912;9.138;2022-11-20T06:52:24;101068.94;;;7.36;57.26
37064;BME280;23211;53.912;9.138;2022-11-20T06:55:10;101063.16;;;7.39;57.94
37064;BME280;23211;53.912;9.138;2022-11-20T06:57:56;101068.66;;;7.44;57.95
37064;BME280;23211;53.912;9.138;2022-11-20T07:00:42;101065.53;;;7.47;57.36
37064;BME280;23211;53.912;9.138;2022-11-20T07:03:28;101058.94;;;7.50;57.76
37064;BME280;23211;53.912;9.138;2022-11-20T07:06:14;101060.91;;;7.54;57.84
37064;BME280;23211;53.912;9.138;2022-11-20T07:08:59;101056.75;;;7.58;57.71
37064;BME280;23211;53.912;9.138;2022-11-20T07:11:45;101055.03;;;7.64;57.59
37064;BME280;23211;53.912;9.138;2022-11-20T07:14:31;101050.06;;;7.67;56.73
37064;BME280;23211;53.912;9.138;2022-11-20T07:17:17;101056.81;;;7.70;56.75
37064;BME280;23211;53.912;9.138;2022-11-20T07:20:03;101055.75;;;7.71;56.88
37064;BME280;23211;53.912;9.138;2022-11-20T07:22:53;101058.22;;;7.72;56.66
37064;BME280;23211;53.912;9.138;2022-11-20T07:25:40;101062.28;;;7.75;56.62
37064;BME280;23211;53.912;9.138;2022-11-20T07:28:26;101058.56;;;7.76;56.94
37064;BME280;23211;53.912;9.138;2022-11-20T07:31:11;101065.31;;;7.79;57.14
37064;BME280;23211;53.912;9.138;2022-11-20T07:33:58;101062.19;;;7.82;56.99
37064;BME280;23211;53.912;9.138;2022-11-20T07:36:44;101066.47;;;7.83;56.89
37064;BME280;23211;53.912;9.138;2022-11-20T07:39:30;101060.69;;;7.86;57.50
37064;BME280;23211;53.912;9.138;2022-11-20T07:42:16;101068.22;;;7.89;57.25
37064;BME280;23211;53.912;9.138;2022-11-20T07:45:01;101061.03;;;7.89;57.35
37064;BME280;23211;53.912;9.138;2022-11-20T07:47:47;101065.09;;;7.92;57.56
37064;BME280;23211;53.912;9.138;2022-11-20T07:50:33;101068.13;;;7.95;57.44
37064;BME280;23211;53.912;9.138;2022-11-20T07:53:19;101068.50;;;7.99;57.71
37064;BME280;23211;53.912;9.138;2022-11-20T07:56:07;101068.03;;;8.02;57.75
37064;BME280;23211;53.912;9.138;2022-11-20T07:58:53;101065.72;;;8.05;57.42
37064;BME280;23211;53.912;9.138;2022-11-20T08:01:39;101066.88;;;8.09;57.75
37064;BME280;23211;53.912;9.138;2022-11-20T08:04:25;101066.19;;;8.14;57.42
37064;BME280;23211;53.912;9.138;2022-11-20T08:07:11;101061.44;;;8.16;57.47
37064;BME280;23211;53.912;9.138;2022-11-20T08:09:57;101068.19;;;8.19;57.34
37064;BME280;23211;53.912;9.138;2022-11-20T08:12:45;101066.91;;;8.21;57.26
37064;BME280;23211;53.912;9.138;2022-11-20T08:15:50;101072.00;;;8.23;57.33
37064;BME280;23211;53.912;9.138;2022-11-20T08:18:36;101069.94;;;8.25;57.09
37064;BME280;23211;53.912;9.138;2022-11-20T08:21:22;101066.00;;;8.27;56.86
37064;BME280;23211;53.912;9.138;2022-11-20T08:24:08;101073.19;;;8.27;57.08
37064;BME280;23211;53.912;9.138;2022-11-20T08:26:57;101063.56;;;8.26;57.00
37064;BME280;23211;53.912;9.138;2022-11-20T08:29:44;101070.28;;;8.28;57.06
37064;BME280;23211;53.912;9.138;2022-11-20T08:32:29;101071.09;;;8.29;57.06
37064;BME280;23211;53.912;9.138;2022-11-20T08:35:15;101076.22;;;8.30;57.10
37064;BME280;23211;53.912;9.138;2022-11-20T08:38:02;101073.31;;;8.32;56.99
37064;BME280;23211;53.912;9.138;2022-11-20T08:40:48;101067.16;;;8.31;57.12
37064;BME280;23211;53.912;9.138;2022-11-20T08:46:42;101076.59;;;8.34;57.06
37064;BME280;23211;53.912;9.138;2022-11-20T08:49:29;101077.41;;;8.34;56.93
37064;BME280;23211;53.912;9.138;2022-11-20T08:52:14;101078.78;;;8.37;57.17
37064;BME280;23211;53.912;9.138;2022-11-20T08:55:00;101080.44;;;8.38;57.04
37064;BME280;23211;53.912;9.138;2022-11-20T08:57:46;101081.25;;;8.38;57.26
37064;BME280;23211;53.912;9.138;2022-11-20T09:00:33;101089.03;;;8.40;57.15
37064;BME280;23211;53.912;9.138;2022-11-20T09:03:19;101088.78;;;8.42;57.29
37064;BME280;23211;53.912;9.138;2022-11-20T09:06:07;101091.22;;;8.43;57.10
37064;BME280;23211;53.912;9.138;2022-11-20T09:08:53;101086.69;;;8.44;57.19
37064;BME280;23211;53.912;9.138;2022-11-20T09:11:39;101092.84;;;8.44;57.45
37064;BME280;23211;53.912;9.138;2022-11-20T09:14:25;101101.69;;;8.45;57.32
37064;BME280;23211;53.912;9.138;2022-11-20T09:17:14;101094.47;;;8.45;57.51
37064;BME280;23211;53.912;9.138;2022-11-20T09:20:00;101094.25;;;8.47;57.54
37064;BME280;23211;53.912;9.138;2022-11-20T09:22:46;101093.78;;;8.50;57.92
37064;BME280;23211;53.912;9.138;2022-11-20T09:25:32;101095.75;;;8.54;57.58
37064;BME280;23211;53.912;9.138;2022-11-20T09:28:18;101091.81;;;8.57;58.03
37064;BME280;23211;53.912;9.138;2022-11-20T09:31:23;101086.25;;;8.58;57.54
37064;BME280;23211;53.912;9.138;2022-11-20T09:34:10;101080.22;;;8.63;57.49
37064;BME280;23211;53.912;9.138;2022-11-20T09:36:55;101088.81;;;8.65;57.38
37064;BME280;23211;53.912;9.138;2022-11-20T09:39:41;101080.56;;;8.66;57.36
37064;BME280;23211;53.912;9.138;2022-11-20T09:42:40;101085.44;;;8.69;57.54
37064;BME280;23211;53.912;9.138;2022-11-20T09:54:37;101081.47;;;8.72;57.82
37064;BME280;23211;53.912;9.138;2022-11-20T09:57:35;101084.72;;;8.74;57.64
37064;BME280;23211;53.912;9.138;2022-11-20T10:00:22;101084.03;;;8.79;57.81
37064;BME280;23211;53.912;9.138;2022-11-20T10:03:16;101081.94;;;8.81;57.75
37064;BME280;23211;53.912;9.138;2022-11-20T10:06:10;101077.75;;;8.85;57.28
37064;BME280;23211;53.912;9.138;2022-11-20T10:15:27;101076.59;;;8.81;57.23
37064;BME280;23211;53.912;9.138;2022-11-20T10:18:32;101066.72;;;8.81;56.92
37064;BME280;23211;53.912;9.138;2022-11-20T10:30:31;101063.81;;;8.71;57.03
37064;BME280;23211;53.912;9.138;2022-11-20T10:33:25;101051.19;;;8.66;56.75
37064;BME280;23211;53.912;9.138;2022-11-20T10:36:21;101046.06;;;8.65;57.00
37064;BME280;23211;53.912;9.138;2022-11-20T10:42:14;101044.22;;;8.65;57.15
37064;BME280;23211;53.912;9.138;2022-11-20T10:48:23;101038.88;;;8.65;57.53
37064;BME280;23211;53.912;9.138;2022-11-20T10:54:18;101030.63;;;8.67;57.30
37064;BME280;23211;53.912;9.138;2022-11-20T10:57:20;101033.88;;;8.69;57.29
37064;BME280;23211;53.912;9.138;2022-11-20T11:00:10;101024.91;;;8.75;57.82
37064;BME280;23211;53.912;9.138;2022-11-20T11:02:56;101029.31;;;8.81;57.83
37064;BME280;23211;53.912;9.138;2022-11-20T11:05:55;101024.09;;;8.86;57.80
37064;BME280;23211;53.912;9.138;2022-11-20T11:08:44;101020.25;;;8.94;58.49
37064;BME280;23211;53.912;9.138;2022-11-20T11:11:33;101012.56;;;8.97;57.48
37064;BME280;23211;53.912;9.138;2022-11-20T11:14:19;101008.59;;;9.00;57.88
37064;BME280;23211;53.912;9.138;2022-11-20T11:17:27;101003.03;;;9.01;57.28
37064;BME280;23211;53.912;9.138;2022-11-20T11:20:18;101007.09;;;9.04;57.49
37064;BME280;23211;53.912;9.138;2022-11-20T11:23:05;101009.28;;;9.07;57.64
37064;BME280;23211;53.912;9.138;2022-11-20T11:26:22;101006.13;;;9.10;57.90
37064;BME280;23211;53.912;9.138;2022-11-20T11:29:17;101004.38;;;9.16;58.03
37064;BME280;23211;53.912;9.138;2022-11-20T11:32:19;101005.63;;;9.25;58.25
37064;BME280;23211;53.912;9.138;2022-11-20T11:38:28;101008.59;;;9.40;58.23
37064;BME280;23211;53.912;9.138;2022-11-20T11:41:19;101000.41;;;9.47;57.79
37064;BME280;23211;53.912;9.138;2022-11-20T11:44:19;100985.19;;;9.47;57.46
37064;BME280;23211;53.912;9.138;2022-11-20T11:47:31;100986.81;;;9.48;57.43
37064;BME280;23211;53.912;9.138;2022-11-20T11:50:21;100986.91;;;9.53;57.17
37064;BME280;23211;53.912;9.138;2022-11-20T11:53:18;100982.13;;;9.55;56.94
37064;BME280;23211;53.912;9.138;2022-11-20T11:56:08;100981.63;;;9.58;57.42
37064;BME280;23211;53.912;9.138;2022-11-20T11:58:57;100985.44;;;9.62;56.97
37064;BME280;23211;53.912;9.138;2022-11-20T12:01:55;100974.28;;;9.65;57.36
37064;BME280;23211;53.912;9.138;2022-11-20T12:04:49;100978.91;;;9.70;57.42
37064;BME280;23211;53.912;9.138;2022-11-20T12:13:32;100965.34;;;9.77;57.51
37064;BME280;23211;53.912;9.138;2022-11-20T12:16:20;100974.19;;;9.77;57.29
37064;BME280;23211;53.912;9.138;2022-11-20T12:19:13;100973.06;;;9.73;56.43
37064;BME280;23211;53.912;9.138;2022-11-20T12:25:11;100960.09;;;9.65;56.37
37064;BME280;23211;53.912;9.138;2022-11-20T12:43:52;100950.47;;;9.35;55.93
37064;BME280;23211;53.912;9.138;2022-11-20T12:50:22;100962.47;;;9.33;56.12
37064;BME280;23211;53.912;9.138;2022-11-20T13:02:26;100949.09;;;9.33;55.86
37064;BME280;23211;53.912;9.138;2022-11-20T13:05:23;100952.00;;;9.31;56.10
37064;BME280;23211;53.912;9.138;2022-11-20T13:08:23;100941.56;;;9.30;55.80
37064;BME280;23211;53.912;9.138;2022-11-20T13:11:14;100942.38;;;9.30;55.83
37064;BME280;23211;53.912;9.138;2022-11-20T13:17:00;100943.25;;;9.36;55.74
37064;BME280;23211;53.912;9.138;2022-11-20T13:19:52;100945.94;;;9.36;55.70
37064;BME280;23211;53.912;9.138;2022-11-20T13:25:36;100940.84;;;9.34;55.29
37064;BME280;23211;53.912;9.138;2022-11-20T13:31:27;100933.78;;;9.28;56.00
37064;BME280;23211;53.912;9.138;2022-11-20T13:34:25;100934.91;;;9.32;55.82
37064;BME280;23211;53.912;9.138;2022-11-20T13:37:34;100918.63;;;9.34;56.26
37064;BME280;23211;53.912;9.138;2022-11-20T13:40:22;100909.66;;;9.40;56.10
37064;BME280;23211;53.912;9.138;2022-11-20T13:43:27;100914.75;;;9.42;55.87
37064;BME280;23211;53.912;9.138;2022-11-20T13:46:14;100916.63;;;9.41;55.65
37064;BME280;23211;53.912;9.138;2022-11-20T13:49:07;100910.94;;;9.37;55.33
37064;BME280;23211;53.912;9.138;2022-11-20T13:55:18;100915.72;;;9.35;55.43
37064;BME280;23211;53.912;9.138;2022-11-20T14:01:26;100913.53;;;9.32;55.24
37064;BME280;23211;53.912;9.138;2022-11-20T14:04:18;100912.38;;;9.28;55.03
37064;BME280;23211;53.912;9.138;2022-11-20T14:07:06;100913.19;;;9.29;55.51
37064;BME280;23211;53.912;9.138;2022-11-20T14:09:56;100914.16;;;9.23;55.37
37064;BME280;23211;53.912;9.138;2022-11-20T14:12:42;100912.53;;;9.22;55.27
37064;BME280;23211;53.912;9.138;2022-11-20T14:15:30;100921.03;;;9.19;55.40
37064;BME280;23211;53.912;9.138;2022-11-20T14:18:20;100911.06;;;9.14;55.14
37064;BME280;23211;53.912;9.138;2022-11-20T14:21:09;100922.56;;;9.15;55.72
37064;BME280;23211;53.912;9.138;2022-11-20T14:24:05;100922.09;;;9.18;55.65
37064;BME280;23211;53.912;9.138;2022-11-20T14:26:52;100923.22;;;9.22;55.61
37064;BME280;23211;53.912;9.138;2022-11-20T14:29:38;100915.78;;;9.24;55.54
37064;BME280;23211;53.912;9.138;2022-11-20T14:32:28;100908.81;;;9.23;55.18
37064;BME280;23211;53.912;9.138;2022-11-20T14:35:45;100902.66;;;9.22;55.48
37064;BME280;23211;53.912;9.138;2022-11-20T14:38:32;100897.41;;;9.27;55.15
37064;BME280;23211;53.912;9.138;2022-11-20T14:41:23;100899.59;;;9.30;55.26
37064;BME280;23211;53.912;9.138;2022-11-20T14:44:09;100900.72;;;9.34;55.42
37064;BME280;23211;53.912;9.138;2022-11-20T14:46:56;100898.38;;;9.38;54.89
37064;BME280;23211;53.912;9.138;2022-11-20T14:49:43;100899.19;;;9.38;55.16
37064;BME280;23211;53.912;9.138;2022-11-20T14:52:30;100892.78;;;9.40;54.60
37064;BME280;23211;53.912;9.138;2022-11-20T14:55:28;100887.69;;;9.38;54.32
37064;BME280;23211;53.912;9.138;2022-11-20T14:58:23;100884.53;;;9.41;54.67
37064;BME280;23211;53.912;9.138;2022-11-20T15:01:12;100880.00;;;9.42;54.46
37064;BME280;23211;53.912;9.138;2022-11-20T15:04:10;100875.94;;;9.39;54.33
37064;BME280;23211;53.912;9.138;2022-11-20T15:06:59;100868.72;;;9.40;54.19
37064;BME280;23211;53.912;9.138;2022-11-20T15:09:45;100863.63;;;9.38;53.90
37064;BME280;23211;53.912;9.138;2022-11-20T15:12:32;100862.00;;;9.37;53.88
37064;BME280;23211;53.912;9.138;2022-11-20T15:18:32;100859.81;;;9.34;53.72
37064;BME280;23211;53.912;9.138;2022-11-20T15:21:22;100854.69;;;9.32;53.61
37064;BME280;23211;53.912;9.138;2022-11-20T15:24:08;100851.47;;;9.30;53.66
37064;BME280;23211;53.912;9.138;2022-11-20T15:26:55;100851.13;;;9.27;53.57
37064;BME280;23211;53.912;9.138;2022-11-20T15:29:43;100850.00;;;9.23;53.58
37064;BME280;23211;53.912;9.138;2022-11-20T15:32:29;100856.88;;;9.19;53.35
37064;BME280;23211;53.912;9.138;2022-11-20T15:35:15;100854.69;;;9.16;53.42
37064;BME280;23211;53.912;9.138;2022-11-20T15:38:01;100859.22;;;9.15;53.48
37064;BME280;23211;53.912;9.138;2022-11-20T15:40:47;100855.97;;;9.13;53.90
37064;BME280;23211;53.912;9.138;2022-11-20T15:43:33;100842.84;;;9.12;53.63
37064;BME280;23211;53.912;9.138;2022-11-20T15:46:25;100840.44;;;9.10;53.67
37064;BME280;23211;53.912;9.138;2022-11-20T15:49:14;100832.16;;;9.12;53.87
37064;BME280;23211;53.912;9.138;2022-11-20T15:52:00;100842.84;;;9.12;54.15
37064;BME280;23211;53.912;9.138;2022-11-20T15:54:47;100839.13;;;9.13;53.57
37064;BME280;23211;53.912;9.138;2022-11-20T15:57:32;100826.00;;;9.11;53.63
37064;BME280;23211;53.912;9.138;2022-11-20T16:00:18;100821.72;;;9.10;53.89
37064;BME280;23211;53.912;9.138;2022-11-20T16:03:04;100813.69;;;9.10;53.90
37064;BME280;23211;53.912;9.138;2022-11-20T16:05:50;100808.03;;;9.07;53.79
37064;BME280;23211;53.912;9.138;2022-11-20T16:08:36;100803.97;;;9.04;53.31
37064;BME280;23211;53.912;9.138;2022-11-20T16:11:22;100805.75;;;8.98;53.14
37064;BME280;23211;53.912;9.138;2022-11-20T16:14:10;100800.91;;;8.95;52.68
37064;BME280;23211;53.912;9.138;2022-11-20T16:17:14;100817.88;;;8.89;53.06
37064;BME280;23211;53.912;9.138;2022-11-20T16:20:00;100798.28;;;8.84;52.61
37064;BME280;23211;53.912;9.138;2022-11-20T16:22:46;100797.38;;;8.78;52.39
37064;BME280;23211;53.912;9.138;2022-11-20T16:25:32;100794.88;;;8.71;52.15
37064;BME280;23211;53.912;9.138;2022-11-20T16:28:18;100802.22;;;8.64;52.18
37064;BME280;23211;53.912;9.138;2022-11-20T16:31:13;100795.63;;;8.55;52.32